sensor_id;sensor_type;location;lat;lon;timestamp;pressure;altitude;pressure_sealevel;temperature;humidity
58467;BME280;44255;49.244;7.726;2023-01-25T04:32:04;99870.41;;;1.22;53.87
58467;BME280;44255;49.244;7.726;2023-01-25T04:34:30;99864.06;;;1.43;53.35
58467;BME280;44255;49.244;7.726;2023-01-25T04:36:55;99868.53;;;1.35;54.00
58467;BME280;44255;49.244;7.726;2023-01-25T04:39:20;99860.59;;;1.32;54.29
58467;BME280;44255;49.244;7.726;2023-01-25T04:41:45;99867.84;;;1.06;54.90
58467;BME280;44255;49.244;7.726;2023-01-25T04:44:11;99858.97;;;1.12;54.62
58467;BME280;44255;49.244;7.726;2023-01-25T04:46:36;99865.03;;;1.28;53.49
58467;BME280;44255;49.244;7.726;2023-01-25T04:49:01;99859.03;;;1.00;54.59
58467;BME280;44255;49.244;7.726;2023-01-25T04:51:27;99861.28;;;1.56;53.77
58467;BME280;44255;49.244;7.726;2023-01-25T04:53:52;99858.78;;;1.35;53.43
58467;BME280;44255;49.244;7.726;2023-01-25T04:56:17;99857.22;;;1.05;53.96
58467;BME280;44255;49.244;7.726;2023-01-25T04:58:43;99851.03;;;1.03;54.73
58467;BME280;44255;49.244;7.726;2023-01-25T05:01:08;99848.16;;;1.35;53.66
58467;BME280;44255;49.244;7.726;2023-01-25T05:03:34;99856.97;;;1.42;53.93
58467;BME280;44255;49.244;7.726;2023-01-25T05:05:59;99857.88;;;1.39;53.32
58467;BME280;44255;49.244;7.726;2023-01-25T05:08:24;99860.75;;;1.07;54.07
58467;BME280;44255;49.244;7.726;2023-01-25T05:10:50;99864.47;;;0.72;55.42
58467;BME280;44255;49.244;7.726;2023-01-25T05:13:16;99860.16;;;0.53;56.50
58467;BME280;44255;49.244;7.726;2023-01-25T05:15:41;99860.97;;;0.66;56.20
58467;BME280;44255;49.244;7.726;2023-01-25T05:18:06;99852.78;;;1.07;55.09
58467;BME280;44255;49.244;7.726;2023-01-25T05:20:32;99854.63;;;0.94;54.98
58467;BME280;44255;49.244;7.726;2023-01-25T05:22:57;99852.09;;;0.71;55.44
58467;BME280;44255;49.244;7.726;2023-01-25T05:25:22;99852.91;;;0.90;54.91
58467;BME280;44255;49.244;7.726;2023-01-25T05:28:06;99858.25;;;0.84;55.75
58467;BME280;44255;49.244;7.726;2023-01-25T05:30:32;99843.19;;;0.86;55.42
58467;BME280;44255;49.244;7.726;2023-01-25T05:32:57;99844.88;;;0.98;54.98
58467;BME280;44255;49.244;7.726;2023-01-25T05:35:23;99843.28;;;0.70;56.10
58467;BME280;44255;49.244;7.726;2023-01-25T05:37:48;99827.88;;;1.25;54.34
58467;BME280;44255;49.244;7.726;2023-01-25T05:40:14;99833.53;;;0.71;55.31
58467;BME280;44255;49.244;7.726;2023-01-25T05:42:39;99840.25;;;1.28;54.76
58467;BME280;44255;49.244;7.726;2023-01-25T05:45:05;99835.00;;;1.18;54.64
58467;BME280;44255;49.244;7.726;2023-01-25T05:47:30;99835.72;;;1.42;54.70
58467;BME280;44255;49.244;7.726;2023-01-25T05:49:56;99836.97;;;0.91;54.85
58467;BME280;44255;49.244;7.726;2023-01-25T05:52:21;99838.91;;;0.57;56.36
58467;BME280;44255;49.244;7.726;2023-01-25T05:54:47;99837.03;;;0.84;55.60
58467;BME280;44255;49.244;7.726;2023-01-25T05:57:13;99834.88;;;1.34;54.57
58467;BME280;44255;49.244;7.726;2023-01-25T05:59:39;99832.59;;;0.79;55.48
58467;BME280;44255;49.244;7.726;2023-01-25T06:02:04;99837.09;;;0.68;56.33
58467;BME280;44255;49.244;7.726;2023-01-25T06:04:29;99833.53;;;0.74;55.70
58467;BME280;44255;49.244;7.726;2023-01-25T06:06:55;99834.34;;;0.82;55.68
58467;BME280;44255;49.244;7.726;2023-01-25T06:09:20;99834.00;;;1.35;53.71
58467;BME280;44255;49.244;7.726;2023-01-25T06:11:46;99833.31;;;1.08;54.83
58467;BME280;44255;49.244;7.726;2023-01-25T06:14:11;99831.75;;;0.73;55.21
58467;BME280;44255;49.244;7.726;2023-01-25T06:16:37;99826.81;;;1.46;54.56
58467;BME280;44255;49.244;7.726;2023-01-25T06:19:04;99823.66;;;0.96;55.22
58467;BME280;44255;49.244;7.726;2023-01-25T06:21:30;99816.38;;;1.24;54.07
58467;BME280;44255;49.244;7.726;2023-01-25T06:23:56;99812.09;;;1.08;54.49
58467;BME280;44255;49.244;7.726;2023-01-25T06:26:21;99808.91;;;1.67;52.90
58467;BME280;44255;49.244;7.726;2023-01-25T06:28:46;99816.50;;;1.07;53.94
58467;BME280;44255;49.244;7.726;2023-01-25T06:31:16;99816.72;;;0.73;55.34
58467;BME280;44255;49.244;7.726;2023-01-25T06:33:42;99803.28;;;1.01;55.07
58467;BME280;44255;49.244;7.726;2023-01-25T06:36:13;99806.94;;;0.85;54.81
58467;BME280;44255;49.244;7.726;2023-01-25T06:38:39;99800.56;;;1.06;54.21
58467;BME280;44255;49.244;7.726;2023-01-25T06:41:06;99799.97;;;1.76;52.91
58467;BME280;44255;49.244;7.726;2023-01-25T06:43:32;99805.69;;;1.31;53.86
58467;BME280;44255;49.244;7.726;2023-01-25T06:46:03;99794.94;;;1.46;53.74
58467;BME280;44255;49.244;7.726;2023-01-25T06:48:29;99805.50;;;1.52;53.50
58467;BME280;44255;49.244;7.726;2023-01-25T06:51:00;99813.00;;;1.01;54.38
58467;BME280;44255;49.244;7.726;2023-01-25T06:53:26;99811.88;;;1.31;53.78
58467;BME280;44255;49.244;7.726;2023-01-25T06:55:59;99807.63;;;1.13;53.98
58467;BME280;44255;49.244;7.726;2023-01-25T06:58:26;99805.53;;;1.51;53.20
58467;BME280;44255;49.244;7.726;2023-01-25T07:00:52;99810.78;;;1.59;53.12
58467;BME280;44255;49.244;7.726;2023-01-25T07:03:17;99813.63;;;1.32;53.05
58467;BME280;44255;49.244;7.726;2023-01-25T07:05:42;99813.63;;;1.35;53.45
58467;BME280;44255;49.244;7.726;2023-01-25T07:08:07;99818.25;;;1.07;53.76
58467;BME280;44255;49.244;7.726;2023-01-25T07:10:33;99820.09;;;0.97;54.57
58467;BME280;44255;49.244;7.726;2023-01-25T07:12:58;99819.31;;;0.86;54.58
58467;BME280;44255;49.244;7.726;2023-01-25T07:15:23;99813.88;;;1.04;54.19
58467;BME280;44255;49.244;7.726;2023-01-25T07:17:48;99803.66;;;1.61;53.25
58467;BME280;44255;49.244;7.726;2023-01-25T07:20:14;99814.66;;;1.16;54.27
58467;BME280;44255;49.244;7.726;2023-01-25T07:22:39;99809.34;;;1.19;53.60
58467;BME280;44255;49.244;7.726;2023-01-25T07:25:05;99815.66;;;1.01;54.32
58467;BME280;44255;49.244;7.726;2023-01-25T07:27:33;99822.50;;;1.31;53.48
58467;BME280;44255;49.244;7.726;2023-01-25T07:29:59;99819.22;;;1.00;54.00
58467;BME280;44255;49.244;7.726;2023-01-25T07:32:24;99811.47;;;0.67;54.94
58467;BME280;44255;49.244;7.726;2023-01-25T07:34:50;99814.88;;;0.86;53.80
58467;BME280;44255;49.244;7.726;2023-01-25T07:37:15;99816.63;;;0.87;54.33
58467;BME280;44255;49.244;7.726;2023-01-25T07:39:41;99816.81;;;0.58;54.87
58467;BME280;44255;49.244;7.726;2023-01-25T07:42:12;99816.63;;;0.89;53.59
58467;BME280;44255;49.244;7.726;2023-01-25T07:44:37;99812.13;;;1.03;54.11
58467;BME280;44255;49.244;7.726;2023-01-25T07:47:02;99813.94;;;0.93;53.35
58467;BME280;44255;49.244;7.726;2023-01-25T07:49:27;99818.47;;;0.79;54.69
58467;BME280;44255;49.244;7.726;2023-01-25T07:51:53;99817.63;;;0.74;54.21
58467;BME280;44255;49.244;7.726;2023-01-25T07:54:18;99812.03;;;1.13;52.81
58467;BME280;44255;49.244;7.726;2023-01-25T07:56:43;99815.75;;;0.87;54.03
58467;BME280;44255;49.244;7.726;2023-01-25T07:59:09;99815.72;;;0.94;53.93
58467;BME280;44255;49.244;7.726;2023-01-25T08:01:34;99817.06;;;1.47;52.86
58467;BME280;44255;49.244;7.726;2023-01-25T08:04:01;99819.44;;;0.58;54.56
58467;BME280;44255;49.244;7.726;2023-01-25T08:06:29;99819.06;;;1.18;53.82
58467;BME280;44255;49.244;7.726;2023-01-25T08:09:01;99822.47;;;1.37;53.58
58467;BME280;44255;49.244;7.726;2023-01-25T08:11:28;99802.78;;;1.62;52.00
58467;BME280;44255;49.244;7.726;2023-01-25T08:13:54;99806.03;;;1.89;52.01
58467;BME280;44255;49.244;7.726;2023-01-25T08:16:21;99809.50;;;1.95;51.69
58467;BME280;44255;49.244;7.726;2023-01-25T08:18:53;99801.88;;;1.63;52.38
58467;BME280;44255;49.244;7.726;2023-01-25T08:21:19;99805.53;;;1.49;53.28
58467;BME280;44255;49.244;7.726;2023-01-25T08:23:45;99810.25;;;1.13;53.36
58467;BME280;44255;49.244;7.726;2023-01-25T08:26:12;99804.56;;;1.58;52.65
58467;BME280;44255;49.244;7.726;2023-01-25T08:28:38;99809.50;;;0.94;53.48
58467;BME280;44255;49.244;7.726;2023-01-25T08:31:11;99807.50;;;1.27;52.90
58467;BME280;44255;49.244;7.726;2023-01-25T08:33:37;99801.22;;;1.37;52.42
58467;BME280;44255;49.244;7.726;2023-01-25T08:36:03;99804.22;;;0.92;53.27
58467;BME280;44255;49.244;7.726;2023-01-25T08:38:29;99800.75;;;0.82;54.13
58467;BME280;44255;49.244;7.726;2023-01-25T08:41:24;99801.72;;;0.69;54.55
58467;BME280;44255;49.244;7.726;2023-01-25T08:43:51;99792.41;;;1.29;53.25
58467;BME280;44255;49.244;7.726;2023-01-25T08:46:17;99781.44;;;1.70;51.69
58467;BME280;44255;49.244;7.726;2023-01-25T08:48:43;99800.47;;;1.18;52.76
58467;BME280;44255;49.244;7.726;2023-01-25T08:51:10;99799.69;;;1.10;52.76
58467;BME280;44255;49.244;7.726;2023-01-25T08:53:36;99804.00;;;1.22;53.08
58467;BME280;44255;49.244;7.726;2023-01-25T08:56:04;99805.22;;;0.71;54.06
58467;BME280;44255;49.244;7.726;2023-01-25T08:58:29;99804.88;;;1.22;53.10
58467;BME280;44255;49.244;7.726;2023-01-25T09:00:59;99792.69;;;0.95;54.06
58467;BME280;44255;49.244;7.726;2023-01-25T09:03:24;99792.78;;;0.82;53.73
58467;BME280;44255;49.244;7.726;2023-01-25T09:05:52;99797.25;;;0.76;53.88
58467;BME280;44255;49.244;7.726;2023-01-25T09:08:18;99788.50;;;0.61;54.69
58467;BME280;44255;49.244;7.726;2023-01-25T09:10:43;99785.44;;;1.16;52.72
58467;BME280;44255;49.244;7.726;2023-01-25T09:13:08;99785.47;;;1.13;53.07
58467;BME280;44255;49.244;7.726;2023-01-25T09:15:34;99788.91;;;1.29;52.90
58467;BME280;44255;49.244;7.726;2023-01-25T09:17:59;99790.28;;;0.59;54.30
58467;BME280;44255;49.244;7.726;2023-01-25T09:20:24;99788.44;;;0.74;53.71
58467;BME280;44255;49.244;7.726;2023-01-25T09:22:50;99793.84;;;0.52;54.90
58467;BME280;44255;49.244;7.726;2023-01-25T09:25:15;99786.47;;;0.98;53.79
58467;BME280;44255;49.244;7.726;2023-01-25T09:27:40;99783.16;;;0.64;54.39
58467;BME280;44255;49.244;7.726;2023-01-25T09:30:06;99779.63;;;0.61;53.85
58467;BME280;44255;49.244;7.726;2023-01-25T09:32:32;99783.97;;;0.76;53.48
58467;BME280;44255;49.244;7.726;2023-01-25T09:34:57;99782.13;;;0.89;53.32
58467;BME280;44255;49.244;7.726;2023-01-25T09:37:23;99782.94;;;0.99;53.36
58467;BME280;44255;49.244;7.726;2023-01-25T09:39:48;99773.66;;;1.49;52.78
58467;BME280;44255;49.244;7.726;2023-01-25T09:47:20;99783.03;;;0.83;53.30
58467;BME280;44255;49.244;7.726;2023-01-25T09:50:04;99780.44;;;0.77;53.89
58467;BME280;44255;49.244;7.726;2023-01-25T09:55:42;99784.03;;;0.66;53.56
58467;BME280;44255;49.244;7.726;2023-01-25T09:58:19;99773.25;;;0.88;53.08
58467;BME280;44255;49.244;7.726;2023-01-25T10:00:49;99782.97;;;0.89;53.03
58467;BME280;44255;49.244;7.726;2023-01-25T10:05:52;99775.84;;;0.96;52.95
58467;BME280;44255;49.244;7.726;2023-01-25T10:08:34;99767.97;;;0.90;52.98
58467;BME280;44255;49.244;7.726;2023-01-25T10:13:45;99753.91;;;0.77;53.29
58467;BME280;44255;49.244;7.726;2023-01-25T10:16:16;99761.09;;;0.54;54.09
58467;BME280;44255;49.244;7.726;2023-01-25T10:19:09;99758.41;;;0.62;53.95
58467;BME280;44255;49.244;7.726;2023-01-25T10:21:59;99761.88;;;0.71;53.76
58467;BME280;44255;49.244;7.726;2023-01-25T10:30:27;99762.53;;;1.05;52.87
58467;BME280;44255;49.244;7.726;2023-01-25T10:32:57;99746.53;;;1.13;52.21
58467;BME280;44255;49.244;7.726;2023-01-25T10:35:27;99748.41;;;0.97;53.39
58467;BME280;44255;49.244;7.726;2023-01-25T10:37:55;99751.00;;;1.05;53.32
58467;BME280;44255;49.244;7.726;2023-01-25T10:40:23;99742.19;;;1.04;53.23
58467;BME280;44255;49.244;7.726;2023-01-25T10:42:55;99744.03;;;0.94;53.16
58467;BME280;44255;49.244;7.726;2023-01-25T10:45:24;99737.94;;;1.75;50.84
58467;BME280;44255;49.244;7.726;2023-01-25T10:47:54;99730.53;;;1.19;52.11
58467;BME280;44255;49.244;7.726;2023-01-25T10:50:57;99729.38;;;1.48;51.37
58467;BME280;44255;49.244;7.726;2023-01-25T11:01:05;99717.16;;;1.32;51.76
58467;BME280;44255;49.244;7.726;2023-01-25T11:03:49;99705.19;;;0.84;53.23
58467;BME280;44255;49.244;7.726;2023-01-25T11:06:28;99689.28;;;1.72;51.65
58467;BME280;44255;49.244;7.726;2023-01-25T11:08:54;99687.06;;;1.28;52.27
58467;BME280;44255;49.244;7.726;2023-01-25T11:13:47;99682.78;;;1.15;52.38
58467;BME280;44255;49.244;7.726;2023-01-25T11:16:28;99681.44;;;0.67;53.63
58467;BME280;44255;49.244;7.726;2023-01-25T11:18:55;99676.81;;;0.92;52.90
58467;BME280;44255;49.244;7.726;2023-01-25T11:21:24;99672.47;;;0.82;53.85
58467;BME280;44255;49.244;7.726;2023-01-25T11:26:32;99671.47;;;0.95;53.04
58467;BME280;44255;49.244;7.726;2023-01-25T11:29:18;99662.00;;;0.62;53.31
58467;BME280;44255;49.244;7.726;2023-01-25T11:31:47;99655.81;;;0.64;53.50
58467;BME280;44255;49.244;7.726;2023-01-25T11:34:24;99654.53;;;1.07;52.13
58467;BME280;44255;49.244;7.726;2023-01-25T11:37:02;99645.16;;;0.67;53.31
58467;BME280;44255;49.244;7.726;2023-01-25T11:39:46;99645.19;;;0.63;53.50
58467;BME280;44255;49.244;7.726;2023-01-25T11:42:40;99637.22;;;1.55;52.04
58467;BME280;44255;49.244;7.726;2023-01-25T11:51:11;99614.63;;;1.14;52.86
58467;BME280;44255;49.244;7.726;2023-01-25T12:05:37;99584.25;;;1.38;53.13
58467;BME280;44255;49.244;7.726;2023-01-25T12:11:19;99574.81;;;1.17;52.61
58467;BME280;44255;49.244;7.726;2023-01-25T12:22:11;99562.38;;;1.86;51.20
58467;BME280;44255;49.244;7.726;2023-01-25T12:24:48;99561.53;;;1.15;52.67
58467;BME280;44255;49.244;7.726;2023-01-25T12:35:12;99541.84;;;1.32;52.61
58467;BME280;44255;49.244;7.726;2023-01-25T12:37:42;99533.31;;;1.06;53.29
58467;BME280;44255;49.244;7.726;2023-01-25T12:40:16;99540.09;;;1.31;52.85
58467;BME280;44255;49.244;7.726;2023-01-25T12:42:57;99528.84;;;1.77;51.63
58467;BME280;44255;49.244;7.726;2023-01-25T12:45:25;99531.66;;;1.65;51.73
58467;BME280;44255;49.244;7.726;2023-01-25T12:47:59;99536.13;;;0.91;53.40
58467;BME280;44255;49.244;7.726;2023-01-25T12:50:58;99529.13;;;1.57;51.45
58467;BME280;44255;49.244;7.726;2023-01-25T12:53:26;99520.97;;;1.01;53.25
58467;BME280;44255;49.244;7.726;2023-01-25T12:55:54;99515.34;;;1.27;52.66
58467;BME280;44255;49.244;7.726;2023-01-25T13:01:19;99508.69;;;0.93;53.27
58467;BME280;44255;49.244;7.726;2023-01-25T13:06:36;99497.47;;;1.40;52.24
58467;BME280;44255;49.244;7.726;2023-01-25T13:09:28;99492.72;;;0.96;52.53
58467;BME280;44255;49.244;7.726;2023-01-25T13:11:57;99488.38;;;1.57;52.52
58467;BME280;44255;49.244;7.726;2023-01-25T13:14:30;99483.91;;;1.60;51.08
58467;BME280;44255;49.244;7.726;2023-01-25T13:19:48;99481.00;;;1.77;51.20
58467;BME280;44255;49.244;7.726;2023-01-25T13:27:39;99472.84;;;1.88;50.66
58467;BME280;44255;49.244;7.726;2023-01-25T13:30:28;99469.66;;;1.64;51.21
58467;BME280;44255;49.244;7.726;2023-01-25T13:32:58;99479.59;;;1.50;51.69
58467;BME280;44255;49.244;7.726;2023-01-25T13:35:26;99467.59;;;1.85;50.56
58467;BME280;44255;49.244;7.726;2023-01-25T13:38:01;99465.88;;;1.81;50.63
58467;BME280;44255;49.244;7.726;2023-01-25T13:40:35;99472.38;;;1.61;51.52
58467;BME280;44255;49.244;7.726;2023-01-25T13:45:37;99458.78;;;1.20;53.03
58467;BME280;44255;49.244;7.726;2023-01-25T13:48:12;99451.59;;;1.29;52.49
58467;BME280;44255;49.244;7.726;2023-01-25T13:50:52;99446.66;;;1.01;53.35
58467;BME280;44255;49.244;7.726;2023-01-25T13:53:22;99444.22;;;1.49;52.16
58467;BME280;44255;49.244;7.726;2023-01-25T13:55:53;99440.56;;;0.92;52.56
58467;BME280;44255;49.244;7.726;2023-01-25T13:58:30;99433.41;;;0.98;53.24
58467;BME280;44255;49.244;7.726;2023-01-25T14:00:59;99426.31;;;0.98;53.02
58467;BME280;44255;49.244;7.726;2023-01-25T14:03:30;99420.00;;;1.07;53.30
58467;BME280;44255;49.244;7.726;2023-01-25T14:05:58;99420.78;;;0.42;54.89
58467;BME280;44255;49.244;7.726;2023-01-25T14:08:27;99410.06;;;1.24;52.67
58467;BME280;44255;49.244;7.726;2023-01-25T14:10:53;99416.63;;;0.95;53.03
58467;BME280;44255;49.244;7.726;2023-01-25T14:13:18;99413.84;;;1.66;52.01
58467;BME280;44255;49.244;7.726;2023-01-25T14:15:52;99416.91;;;1.38;51.77
58467;BME280;44255;49.244;7.726;2023-01-25T14:18:19;99419.94;;;1.11;52.87
58467;BME280;44255;49.244;7.726;2023-01-25T14:20:47;99415.59;;;1.06;53.51
58467;BME280;44255;49.244;7.726;2023-01-25T14:23:23;99413.63;;;1.22;52.89
58467;BME280;44255;49.244;7.726;2023-01-25T14:25:50;99399.28;;;1.89;50.36
58467;BME280;44255;49.244;7.726;2023-01-25T14:28:16;99402.47;;;2.09;49.96
58467;BME280;44255;49.244;7.726;2023-01-25T14:30:42;99400.81;;;2.02;49.84
58467;BME280;44255;49.244;7.726;2023-01-25T14:33:27;99395.91;;;1.22;51.54
58467;BME280;44255;49.244;7.726;2023-01-25T14:35:54;99394.84;;;1.89;50.11
58467;BME280;44255;49.244;7.726;2023-01-25T14:38:29;99397.19;;;2.06;49.83
58467;BME280;44255;49.244;7.726;2023-01-25T14:40:58;99390.00;;;1.61;50.74
58467;BME280;44255;49.244;7.726;2023-01-25T14:43:25;99396.56;;;1.37;51.88
58467;BME280;44255;49.244;7.726;2023-01-25T14:45:51;99388.53;;;1.42;51.52
58467;BME280;44255;49.244;7.726;2023-01-25T14:48:37;99387.75;;;0.72;53.27
58467;BME280;44255;49.244;7.726;2023-01-25T14:51:09;99383.16;;;1.46;51.83
58467;BME280;44255;49.244;7.726;2023-01-25T14:53:39;99389.63;;;1.30;52.44
58467;BME280;44255;49.244;7.726;2023-01-25T14:56:18;99394.84;;;0.68;53.63
58467;BME280;44255;49.244;7.726;2023-01-25T14:58:46;99392.19;;;0.70;53.50
58467;BME280;44255;49.244;7.726;2023-01-25T15:01:21;99389.09;;;0.31;54.78
58467;BME280;44255;49.244;7.726;2023-01-25T15:03:48;99393.81;;;0.82;53.82
58467;BME280;44255;49.244;7.726;2023-01-25T15:06:13;99387.34;;;1.03;52.32
58467;BME280;44255;49.244;7.726;2023-01-25T15:08:38;99383.22;;;0.79;53.26
58467;BME280;44255;49.244;7.726;2023-01-25T15:11:31;99377.06;;;0.77;53.27
58467;BME280;44255;49.244;7.726;2023-01-25T15:14:13;99376.97;;;0.83;52.99
58467;BME280;44255;49.244;7.726;2023-01-25T15:16:39;99362.88;;;1.39;51.00
58467;BME280;44255;49.244;7.726;2023-01-25T15:19:20;99360.44;;;0.62;53.16
58467;BME280;44255;49.244;7.726;2023-01-25T15:21:46;99359.63;;;1.21;51.20
58467;BME280;44255;49.244;7.726;2023-01-25T15:24:12;99356.00;;;0.63;52.72
58467;BME280;44255;49.244;7.726;2023-01-25T15:26:37;99342.53;;;1.39;50.47
58467;BME280;44255;49.244;7.726;2023-01-25T15:29:23;99336.78;;;1.66;49.84
58467;BME280;44255;49.244;7.726;2023-01-25T15:31:51;99336.00;;;1.59;50.13
58467;BME280;44255;49.244;7.726;2023-01-25T15:34:18;99326.47;;;0.89;51.80
58467;BME280;44255;49.244;7.726;2023-01-25T15:36:44;99332.28;;;0.52;52.43
58467;BME280;44255;49.244;7.726;2023-01-25T15:39:12;99325.16;;;0.56;52.48
58467;BME280;44255;49.244;7.726;2023-01-25T15:41:38;99321.53;;;1.25;50.87
58467;BME280;44255;49.244;7.726;2023-01-25T15:44:03;99322.41;;;1.24;50.66
58467;BME280;44255;49.244;7.726;2023-01-25T15:46:29;99319.53;;;1.37;50.59
58467;BME280;44255;49.244;7.726;2023-01-25T15:48:57;99316.63;;;0.96;51.28
58467;BME280;44255;49.244;7.726;2023-01-25T15:51:23;99314.81;;;1.54;49.85
58467;BME280;44255;49.244;7.726;2023-01-25T15:53:48;99303.78;;;1.26;50.95
58467;BME280;44255;49.244;7.726;2023-01-25T15:56:25;99302.94;;;1.22;51.00
58467;BME280;44255;49.244;7.726;2023-01-25T15:58:53;99311.16;;;1.08;51.19
58467;BME280;44255;49.244;7.726;2023-01-25T16:01:22;99309.63;;;0.92;51.51
58467;BME280;44255;49.244;7.726;2023-01-25T16:03:50;99312.31;;;0.89;52.12
58467;BME280;44255;49.244;7.726;2023-01-25T16:09:23;99306.84;;;1.00;51.51
58467;BME280;44255;49.244;7.726;2023-01-25T16:11:51;99304.31;;;1.48;50.57
58467;BME280;44255;49.244;7.726;2023-01-25T16:14:17;99301.25;;;1.18;50.89
58467;BME280;44255;49.244;7.726;2023-01-25T16:16:45;99305.53;;;1.29;50.43
58467;BME280;44255;49.244;7.726;2023-01-25T16:19:13;99304.69;;;1.27;51.05
58467;BME280;44255;49.244;7.726;2023-01-25T16:21:39;99297.94;;;1.59;49.62
58467;BME280;44255;49.244;7.726;2023-01-25T16:24:04;99304.69;;;0.64;51.93
58467;BME280;44255;49.244;7.726;2023-01-25T16:26:30;99305.59;;;1.22;50.93
58467;BME280;44255;49.244;7.726;2023-01-25T16:28:55;99299.38;;;1.25;49.78
58467;BME280;44255;49.244;7.726;2023-01-25T16:31:20;99301.97;;;1.30;50.68
58467;BME280;44255;49.244;7.726;2023-01-25T16:33:46;99301.78;;;1.42;49.89
58467;BME280;44255;49.244;7.726;2023-01-25T16:36:13;99294.47;;;1.53;49.67
58467;BME280;44255;49.244;7.726;2023-01-25T16:38:39;99300.81;;;1.45;50.01
58467;BME280;44255;49.244;7.726;2023-01-25T16:41:04;99294.72;;;0.83;51.57
58467;BME280;44255;49.244;7.726;2023-01-25T16:43:29;99304.50;;;1.36;50.63
58467;BME280;44255;49.244;7.726;2023-01-25T16:45:56;99292.25;;;1.29;50.68
58467;BME280;44255;49.244;7.726;2023-01-25T16:48:22;99303.47;;;1.45;50.01
58467;BME280;44255;49.244;7.726;2023-01-25T16:50:48;99300.28;;;1.24;50.35
58467;BME280;44255;49.244;7.726;2023-01-25T16:53:14;99297.31;;;1.44;50.40
58467;BME280;44255;49.244;7.726;2023-01-25T16:55:39;99293.69;;;1.48;49.46
58467;BME280;44255;49.244;7.726;2023-01-25T16:58:04;99295.63;;;1.37;50.14
58467;BME280;44255;49.244;7.726;2023-01-25T17:00:30;99286.94;;;1.29;50.35
58467;BME280;44255;49.244;7.726;2023-01-25T17:02:55;99290.19;;;1.46;49.85
58467;BME280;44255;49.244;7.726;2023-01-25T17:05:20;99298.88;;;1.56;49.41
58467;BME280;44255;49.244;7.726;2023-01-25T17:07:49;99291.75;;;1.57;49.69
58467;BME280;44255;49.244;7.726;2023-01-25T17:10:15;99293.88;;;1.36;50.34
58467;BME280;44255;49.244;7.726;2023-01-25T17:12:40;99295.69;;;1.35;49.98
58467;BME280;44255;49.244;7.726;2023-01-25T17:15:07;99296.13;;;1.61;49.34
58467;BME280;44255;49.244;7.726;2023-01-25T17:17:32;99291.44;;;0.65;51.63
58467;BME280;44255;49.244;7.726;2023-01-25T17:19:58;99292.50;;;1.13;51.26
58467;BME280;44255;49.244;7.726;2023-01-25T17:22:23;99294.59;;;1.47;49.88
58467;BME280;44255;49.244;7.726;2023-01-25T17:24:48;99293.50;;;1.58;49.80
58467;BME280;44255;49.244;7.726;2023-01-25T17:27:13;99291.75;;;1.58;50.30
58467;BME280;44255;49.244;7.726;2023-01-25T17:29:39;99286.44;;;1.57;49.58
58467;BME280;44255;49.244;7.726;2023-01-25T17:32:05;99286.69;;;1.43;49.88
58467;BME280;44255;49.244;7.726;2023-01-25T17:34:30;99289.56;;;0.71;51.77
58467;BME280;44255;49.244;7.726;2023-01-25T17:36:55;99288.50;;;0.86;51.39
58467;BME280;44255;49.244;7.726;2023-01-25T17:39:21;99276.38;;;1.24;50.04
58467;BME280;44255;49.244;7.726;2023-01-25T17:41:48;99280.56;;;1.39;50.22
58467;BME280;44255;49.244;7.726;2023-01-25T17:44:21;99270.88;;;1.35;50.41
58467;BME280;44255;49.244;7.726;2023-01-25T17:46:48;99274.34;;;1.40;49.94
58467;BME280;44255;49.244;7.726;2023-01-25T17:49:14;99265.09;;;1.09;51.44
58467;BME280;44255;49.244;7.726;2023-01-25T17:51:43;99253.00;;;1.45;50.17
58467;BME280;44255;49.244;7.726;2023-01-25T17:54:10;99266.22;;;1.48;50.12
58467;BME280;44255;49.244;7.726;2023-01-25T17:56:36;99253.78;;;1.51;49.79
58467;BME280;44255;49.244;7.726;2023-01-25T17:59:01;99253.81;;;0.96;51.38
58467;BME280;44255;49.244;7.726;2023-01-25T18:01:28;99256.78;;;0.07;53.57
58467;BME280;44255;49.244;7.726;2023-01-25T18:03:56;99253.63;;;1.09;51.16
58467;BME280;44255;49.244;7.726;2023-01-25T18:06:24;99258.88;;;1.12;51.14
58467;BME280;44255;49.244;7.726;2023-01-25T18:08:52;99260.53;;;-0.09;53.31
58467;BME280;44255;49.244;7.726;2023-01-25T18:11:21;99255.09;;;0.00;53.76
58467;BME280;44255;49.244;7.726;2023-01-25T18:13:48;99249.03;;;-0.08;53.49
58467;BME280;44255;49.244;7.726;2023-01-25T18:16:15;99250.78;;;-0.09;54.01
58467;BME280;44255;49.244;7.726;2023-01-25T18:18:42;99244.00;;;0.37;52.62
58467;BME280;44255;49.244;7.726;2023-01-25T18:21:12;99251.72;;;-0.11;53.38
58467;BME280;44255;49.244;7.726;2023-01-25T18:23:39;99244.84;;;0.43;52.66
58467;BME280;44255;49.244;7.726;2023-01-25T18:26:06;99251.13;;;0.35;52.44
58467;BME280;44255;49.244;7.726;2023-01-25T18:28:40;99249.34;;;-0.39;54.54
58467;BME280;44255;49.244;7.726;2023-01-25T18:31:05;99237.25;;;0.80;50.99
58467;BME280;44255;49.244;7.726;2023-01-25T18:33:30;99247.75;;;0.24;51.71
58467;BME280;44255;49.244;7.726;2023-01-25T18:35:58;99234.06;;;0.58;50.61
58467;BME280;44255;49.244;7.726;2023-01-25T18:38:24;99228.13;;;0.99;50.00
58467;BME280;44255;49.244;7.726;2023-01-25T18:40:49;99223.53;;;1.07;49.73
58467;BME280;44255;49.244;7.726;2023-01-25T18:43:15;99223.41;;;1.15;49.36
58467;BME280;44255;49.244;7.726;2023-01-25T18:45:41;99231.50;;;1.07;49.96
58467;BME280;44255;49.244;7.726;2023-01-25T18:48:06;99214.59;;;1.14;48.94
58467;BME280;44255;49.244;7.726;2023-01-25T18:50:34;99216.94;;;1.31;49.02
58467;BME280;44255;49.244;7.726;2023-01-25T18:52:59;99220.75;;;1.18;48.78
58467;BME280;44255;49.244;7.726;2023-01-25T18:55:25;99215.56;;;1.10;49.17
58467;BME280;44255;49.244;7.726;2023-01-25T18:57:52;99218.03;;;1.21;48.95
58467;BME280;44255;49.244;7.726;2023-01-25T19:00:20;99218.69;;;0.15;50.80
58467;BME280;44255;49.244;7.726;2023-01-25T19:02:45;99211.34;;;-0.34;52.70
58467;BME280;44255;49.244;7.726;2023-01-25T19:05:10;99203.75;;;0.10;52.38
58467;BME280;44255;49.244;7.726;2023-01-25T19:07:35;99209.22;;;0.62;50.82
58467;BME280;44255;49.244;7.726;2023-01-25T19:10:01;99207.69;;;1.04;49.17
58467;BME280;44255;49.244;7.726;2023-01-25T19:12:26;99204.03;;;1.11;48.94
58467;BME280;44255;49.244;7.726;2023-01-25T19:14:52;99203.91;;;1.17;48.90
58467;BME280;44255;49.244;7.726;2023-01-25T19:17:17;99196.59;;;0.78;50.31